sensor_id;sensor_type;location;lat;lon;timestamp;P1;durP1;ratioP1;P2;durP2;ratioP2
66169;SDS011;66757;44.024;20.456;2023-10-08T00:01:52;18.35;;;9.98;;
66169;SDS011;66757;44.024;20.456;2023-10-08T00:04:21;18.33;;;10.60;;
66169;SDS011;66757;44.024;20.456;2023-10-08T00:06:47;19.25;;;10.55;;
66169;SDS011;66757;44.024;20.456;2023-10-08T00:09:13;16.60;;;9.70;;
66169;SDS011;66757;44.024;20.456;2023-10-08T00:11:40;16.45;;;10.50;;
66169;SDS011;66757;44.024;20.456;2023-10-08T00:14:06;15.73;;;10.05;;
66169;SDS011;66757;44.024;20.456;2023-10-08T00:16:36;18.95;;;10.27;;
66169;SDS011;66757;44.024;20.456;2023-10-08T00:19:05;14.93;;;9.52;;
66169;SDS011;66757;44.024;20.456;2023-10-08T00:21:38;13.45;;;9.55;;
66169;SDS011;66757;44.024;20.456;2023-10-08T00:24:04;15.70;;;9.68;;
66169;SDS011;66757;44.024;20.456;2023-10-08T00:26:34;16.42;;;9.75;;
66169;SDS011;66757;44.024;20.456;2023-10-08T00:29:05;16.98;;;9.80;;
66169;SDS011;66757;44.024;20.456;2023-10-08T00:31:40;15.30;;;9.45;;
66169;SDS011;66757;44.024;20.456;2023-10-08T00:34:06;13.95;;;8.98;;
66169;SDS011;66757;44.024;20.456;2023-10-08T00:36:39;17.23;;;8.60;;
66169;SDS011;66757;44.024;20.456;2023-10-08T00:39:08;15.45;;;8.82;;
66169;SDS011;66757;44.024;20.456;2023-10-08T00:41:41;16.85;;;9.48;;
66169;SDS011;66757;44.024;20.456;2023-10-08T00:44:12;13.70;;;8.57;;
66169;SDS011;66757;44.024;20.456;2023-10-08T00:46:40;15.32;;;9.43;;
66169;SDS011;66757;44.024;20.456;2023-10-08T00:49:13;17.40;;;8.95;;
66169;SDS011;66757;44.024;20.456;2023-10-08T00:51:50;17.35;;;9.07;;
66169;SDS011;66757;44.024;20.456;2023-10-08T00:54:28;16.70;;;9.18;;
66169;SDS011;66757;44.024;20.456;2023-10-08T00:56:57;10.73;;;8.25;;
66169;SDS011;66757;44.024;20.456;2023-10-08T00:59:24;15.93;;;9.25;;
66169;SDS011;66757;44.024;20.456;2023-10-08T01:01:58;16.42;;;9.00;;
66169;SDS011;66757;44.024;20.456;2023-10-08T01:04:29;14.52;;;9.13;;
66169;SDS011;66757;44.024;20.456;2023-10-08T01:06:59;15.65;;;9.27;;
66169;SDS011;66757;44.024;20.456;2023-10-08T01:09:35;17.25;;;9.48;;
66169;SDS011;66757;44.024;20.456;2023-10-08T01:12:12;15.43;;;9.80;;
66169;SDS011;66757;44.024;20.456;2023-10-08T01:14:41;15.15;;;7.20;;
66169;SDS011;66757;44.024;20.456;2023-10-08T01:17:08;13.02;;;6.35;;
66169;SDS011;66757;44.024;20.456;2023-10-08T01:19:37;10.85;;;7.32;;
66169;SDS011;66757;44.024;20.456;2023-10-08T01:22:06;14.95;;;6.70;;
66169;SDS011;66757;44.024;20.456;2023-10-08T01:24:32;12.15;;;6.25;;
66169;SDS011;66757;44.024;20.456;2023-10-08T01:27:00;12.60;;;6.85;;
66169;SDS011;66757;44.024;20.456;2023-10-08T01:29:29;11.25;;;6.72;;
66169;SDS011;66757;44.024;20.456;2023-10-08T01:31:54;11.60;;;6.35;;
66169;SDS011;66757;44.024;20.456;2023-10-08T01:34:23;10.27;;;6.20;;
66169;SDS011;66757;44.024;20.456;2023-10-08T01:36:56;10.80;;;6.20;;
66169;SDS011;66757;44.024;20.456;2023-10-08T01:39:26;10.80;;;6.40;;
66169;SDS011;66757;44.024;20.456;2023-10-08T01:41:52;13.05;;;6.60;;
66169;SDS011;66757;44.024;20.456;2023-10-08T01:44:17;12.85;;;6.28;;
66169;SDS011;66757;44.024;20.456;2023-10-08T01:46:43;14.02;;;6.78;;
66169;SDS011;66757;44.024;20.456;2023-10-08T01:49:09;13.48;;;6.80;;
66169;SDS011;66757;44.024;20.456;2023-10-08T01:51:41;13.88;;;7.38;;
66169;SDS011;66757;44.024;20.456;2023-10-08T01:54:12;11.90;;;7.00;;
66169;SDS011;66757;44.024;20.456;2023-10-08T01:56:40;13.73;;;7.38;;
66169;SDS011;66757;44.024;20.456;2023-10-08T01:59:13;13.27;;;7.88;;
66169;SDS011;66757;44.024;20.456;2023-10-08T02:01:41;14.25;;;7.55;;
66169;SDS011;66757;44.024;20.456;2023-10-08T02:04:08;14.50;;;8.52;;
66169;SDS011;66757;44.024;20.456;2023-10-08T02:06:35;17.75;;;8.50;;
66169;SDS011;66757;44.024;20.456;2023-10-08T02:09:02;14.02;;;8.02;;
66169;SDS011;66757;44.024;20.456;2023-10-08T02:14:08;13.65;;;8.10;;
66169;SDS011;66757;44.024;20.456;2023-10-08T02:16:34;12.50;;;7.25;;
66169;SDS011;66757;44.024;20.456;2023-10-08T02:18:59;13.55;;;7.32;;
66169;SDS011;66757;44.024;20.456;2023-10-08T02:21:25;13.27;;;7.15;;
66169;SDS011;66757;44.024;20.456;2023-10-08T02:23:52;15.35;;;7.72;;
66169;SDS011;66757;44.024;20.456;2023-10-08T02:26:17;17.67;;;9.98;;
66169;SDS011;66757;44.024;20.456;2023-10-08T02:28:44;18.88;;;11.55;;
66169;SDS011;66757;44.024;20.456;2023-10-08T02:31:10;21.27;;;10.45;;
66169;SDS011;66757;44.024;20.456;2023-10-08T02:33:35;13.00;;;7.57;;
66169;SDS011;66757;44.024;20.456;2023-10-08T02:36:02;14.02;;;7.25;;
66169;SDS011;66757;44.024;20.456;2023-10-08T02:38:30;9.48;;;6.20;;
66169;SDS011;66757;44.024;20.456;2023-10-08T02:41:02;11.35;;;6.68;;
66169;SDS011;66757;44.024;20.456;2023-10-08T02:43:31;11.63;;;6.90;;
66169;SDS011;66757;44.024;20.456;2023-10-08T02:46:01;13.90;;;8.20;;
66169;SDS011;66757;44.024;20.456;2023-10-08T02:48:33;11.90;;;7.07;;
66169;SDS011;66757;44.024;20.456;2023-10-08T02:51:00;12.90;;;7.88;;
66169;SDS011;66757;44.024;20.456;2023-10-08T02:53:36;15.10;;;8.05;;
66169;SDS011;66757;44.024;20.456;2023-10-08T02:56:01;10.85;;;7.70;;
66169;SDS011;66757;44.024;20.456;2023-10-08T02:58:37;16.35;;;8.70;;
66169;SDS011;66757;44.024;20.456;2023-10-08T03:01:03;12.25;;;7.65;;
66169;SDS011;66757;44.024;20.456;2023-10-08T03:03:30;15.85;;;8.20;;
66169;SDS011;66757;44.024;20.456;2023-10-08T03:05:57;13.75;;;8.00;;
66169;SDS011;66757;44.024;20.456;2023-10-08T03:08:23;14.57;;;8.27;;
66169;SDS011;66757;44.024;20.456;2023-10-08T03:10:50;10.27;;;6.70;;
66169;SDS011;66757;44.024;20.456;2023-10-08T03:13:20;12.65;;;7.65;;
66169;SDS011;66757;44.024;20.456;2023-10-08T03:15:51;16.10;;;8.95;;
66169;SDS011;66757;44.024;20.456;2023-10-08T03:18:32;16.08;;;8.05;;
66169;SDS011;66757;44.024;20.456;2023-10-08T03:21:04;13.27;;;7.78;;
66169;SDS011;66757;44.024;20.456;2023-10-08T03:23:30;13.50;;;7.93;;
66169;SDS011;66757;44.024;20.456;2023-10-08T03:25:56;11.55;;;7.97;;
66169;SDS011;66757;44.024;20.456;2023-10-08T03:28:43;15.43;;;7.50;;
66169;SDS011;66757;44.024;20.456;2023-10-08T03:31:09;13.93;;;7.20;;
66169;SDS011;66757;44.024;20.456;2023-10-08T03:33:45;11.57;;;6.35;;
66169;SDS011;66757;44.024;20.456;2023-10-08T03:36:17;9.45;;;6.20;;
66169;SDS011;66757;44.024;20.456;2023-10-08T03:39:00;10.05;;;7.05;;
66169;SDS011;66757;44.024;20.456;2023-10-08T03:41:36;13.60;;;7.22;;
66169;SDS011;66757;44.024;20.456;2023-10-08T03:44:05;10.73;;;5.90;;
66169;SDS011;66757;44.024;20.456;2023-10-08T03:46:32;9.15;;;5.78;;
66169;SDS011;66757;44.024;20.456;2023-10-08T03:49:04;11.25;;;7.05;;
66169;SDS011;66757;44.024;20.456;2023-10-08T03:51:46;12.40;;;7.53;;
66169;SDS011;66757;44.024;20.456;2023-10-08T03:54:11;10.10;;;7.10;;
66169;SDS011;66757;44.024;20.456;2023-10-08T03:56:39;11.90;;;7.78;;
66169;SDS011;66757;44.024;20.456;2023-10-08T03:59:10;11.43;;;7.15;;
66169;SDS011;66757;44.024;20.456;2023-10-08T04:01:59;11.07;;;7.22;;
66169;SDS011;66757;44.024;20.456;2023-10-08T04:04:35;14.75;;;7.53;;
66169;SDS011;66757;44.024;20.456;2023-10-08T04:07:36;15.52;;;7.72;;
66169;SDS011;66757;44.024;20.456;2023-10-08T04:10:22;11.25;;;7.22;;
66169;SDS011;66757;44.024;20.456;2023-10-08T04:13:19;12.35;;;6.78;;
66169;SDS011;66757;44.024;20.456;2023-10-08T04:15:45;7.97;;;5.90;;
66169;SDS011;66757;44.024;20.456;2023-10-08T04:18:10;10.98;;;6.55;;
66169;SDS011;66757;44.024;20.456;2023-10-08T04:20:38;12.70;;;7.30;;
66169;SDS011;66757;44.024;20.456;2023-10-08T04:23:07;12.27;;;7.00;;
66169;SDS011;66757;44.024;20.456;2023-10-08T04:25:46;12.57;;;7.00;;
66169;SDS011;66757;44.024;20.456;2023-10-08T04:28:12;14.13;;;7.75;;
66169;SDS011;66757;44.024;20.456;2023-10-08T04:30:39;11.73;;;7.82;;
66169;SDS011;66757;44.024;20.456;2023-10-08T04:33:07;16.02;;;7.28;;
66169;SDS011;66757;44.024;20.456;2023-10-08T04:35:43;12.00;;;7.15;;
66169;SDS011;66757;44.024;20.456;2023-10-08T04:38:21;12.43;;;7.18;;
66169;SDS011;66757;44.024;20.456;2023-10-08T04:40:51;11.55;;;6.50;;
66169;SDS011;66757;44.024;20.456;2023-10-08T04:43:18;14.93;;;7.72;;
66169;SDS011;66757;44.024;20.456;2023-10-08T04:45:50;9.75;;;5.70;;
66169;SDS011;66757;44.024;20.456;2023-10-08T04:48:16;11.85;;;6.63;;
66169;SDS011;66757;44.024;20.456;2023-10-08T04:50:46;11.93;;;6.65;;
66169;SDS011;66757;44.024;20.456;2023-10-08T04:53:27;9.60;;;6.10;;
66169;SDS011;66757;44.024;20.456;2023-10-08T04:56:01;11.82;;;6.38;;
66169;SDS011;66757;44.024;20.456;2023-10-08T04:58:31;10.02;;;6.35;;
66169;SDS011;66757;44.024;20.456;2023-10-08T05:01:01;10.52;;;6.07;;
66169;SDS011;66757;44.024;20.456;2023-10-08T05:03:43;9.68;;;6.45;;
66169;SDS011;66757;44.024;20.456;2023-10-08T05:06:33;10.20;;;6.07;;
66169;SDS011;66757;44.024;20.456;2023-10-08T05:09:06;10.30;;;5.78;;
66169;SDS011;66757;44.024;20.456;2023-10-08T05:11:46;9.52;;;5.30;;
66169;SDS011;66757;44.024;20.456;2023-10-08T05:14:15;10.75;;;5.50;;
66169;SDS011;66757;44.024;20.456;2023-10-08T05:16:56;9.70;;;5.43;;
66169;SDS011;66757;44.024;20.456;2023-10-08T05:19:41;12.00;;;5.63;;
66169;SDS011;66757;44.024;20.456;2023-10-08T05:22:10;11.02;;;6.00;;
66169;SDS011;66757;44.024;20.456;2023-10-08T05:24:46;9.35;;;5.65;;
66169;SDS011;66757;44.024;20.456;2023-10-08T05:27:33;11.20;;;5.30;;
66169;SDS011;66757;44.024;20.456;2023-10-08T05:30:18;9.85;;;5.88;;
66169;SDS011;66757;44.024;20.456;2023-10-08T05:32:56;12.25;;;6.47;;
66169;SDS011;66757;44.024;20.456;2023-10-08T05:35:37;14.75;;;6.65;;
66169;SDS011;66757;44.024;20.456;2023-10-08T05:38:15;13.55;;;6.55;;
66169;SDS011;66757;44.024;20.456;2023-10-08T05:40:51;13.10;;;6.47;;
66169;SDS011;66757;44.024;20.456;2023-10-08T05:43:27;12.00;;;6.75;;
66169;SDS011;66757;44.024;20.456;2023-10-08T05:46:13;15.63;;;8.63;;
66169;SDS011;66757;44.024;20.456;2023-10-08T05:51:36;30.48;;;17.42;;
66169;SDS011;66757;44.024;20.456;2023-10-08T05:54:15;26.65;;;15.25;;
66169;SDS011;66757;44.024;20.456;2023-10-08T05:59:43;23.25;;;12.95;;
66169;SDS011;66757;44.024;20.456;2023-10-08T06:02:39;22.80;;;13.07;;
66169;SDS011;66757;44.024;20.456;2023-10-08T06:05:10;26.63;;;13.75;;
66169;SDS011;66757;44.024;20.456;2023-10-08T06:07:47;19.92;;;12.48;;
66169;SDS011;66757;44.024;20.456;2023-10-08T06:10:17;19.63;;;10.90;;
66169;SDS011;66757;44.024;20.456;2023-10-08T06:12:55;16.55;;;10.43;;
66169;SDS011;66757;44.024;20.456;2023-10-08T06:15:35;19.17;;;11.07;;
66169;SDS011;66757;44.024;20.456;2023-10-08T06:18:17;18.85;;;11.63;;
66169;SDS011;66757;44.024;20.456;2023-10-08T06:20:44;19.67;;;12.90;;
66169;SDS011;66757;44.024;20.456;2023-10-08T06:23:11;25.90;;;12.18;;
66169;SDS011;66757;44.024;20.456;2023-10-08T06:25:39;20.20;;;11.40;;
66169;SDS011;66757;44.024;20.456;2023-10-08T06:28:14;11.93;;;8.32;;
66169;SDS011;66757;44.024;20.456;2023-10-08T06:30:48;16.00;;;8.35;;
66169;SDS011;66757;44.024;20.456;2023-10-08T06:33:17;14.00;;;8.57;;
66169;SDS011;66757;44.024;20.456;2023-10-08T06:35:43;12.57;;;7.53;;
66169;SDS011;66757;44.024;20.456;2023-10-08T06:38:29;13.18;;;7.38;;
66169;SDS011;66757;44.024;20.456;2023-10-08T06:41:01;12.02;;;6.95;;
66169;SDS011;66757;44.024;20.456;2023-10-08T06:43:35;11.93;;;7.85;;
66169;SDS011;66757;44.024;20.456;2023-10-08T06:46:02;13.35;;;8.85;;
66169;SDS011;66757;44.024;20.456;2023-10-08T06:48:28;14.60;;;9.38;;
66169;SDS011;66757;44.024;20.456;2023-10-08T06:50:54;15.73;;;8.68;;
66169;SDS011;66757;44.024;20.456;2023-10-08T06:53:23;13.73;;;7.55;;
66169;SDS011;66757;44.024;20.456;2023-10-08T06:55:50;15.13;;;8.07;;
66169;SDS011;66757;44.024;20.456;2023-10-08T06:58:23;12.38;;;7.53;;
66169;SDS011;66757;44.024;20.456;2023-10-08T07:00:49;9.63;;;6.78;;
66169;SDS011;66757;44.024;20.456;2023-10-08T07:03:15;16.67;;;7.90;;
66169;SDS011;66757;44.024;20.456;2023-10-08T07:08:51;13.60;;;8.13;;
66169;SDS011;66757;44.024;20.456;2023-10-08T07:11:20;15.40;;;8.73;;
66169;SDS011;66757;44.024;20.456;2023-10-08T07:13:47;13.10;;;8.45;;
66169;SDS011;66757;44.024;20.456;2023-10-08T07:16:13;13.65;;;8.77;;
66169;SDS011;66757;44.024;20.456;2023-10-08T07:18:42;12.68;;;8.77;;
66169;SDS011;66757;44.024;20.456;2023-10-08T07:21:15;17.17;;;8.38;;
66169;SDS011;66757;44.024;20.456;2023-10-08T07:23:40;14.60;;;8.30;;
66169;SDS011;66757;44.024;20.456;2023-10-08T07:26:27;13.30;;;8.40;;
66169;SDS011;66757;44.024;20.456;2023-10-08T07:29:06;29.83;;;15.25;;
66169;SDS011;66757;44.024;20.456;2023-10-08T07:31:38;20.00;;;11.55;;
66169;SDS011;66757;44.024;20.456;2023-10-08T07:34:08;26.73;;;15.07;;
66169;SDS011;66757;44.024;20.456;2023-10-08T07:36:48;35.35;;;18.98;;
66169;SDS011;66757;44.024;20.456;2023-10-08T07:39:18;39.35;;;20.20;;
66169;SDS011;66757;44.024;20.456;2023-10-08T07:41:58;37.85;;;19.73;;
66169;SDS011;66757;44.024;20.456;2023-10-08T07:44:33;32.83;;;16.40;;
66169;SDS011;66757;44.024;20.456;2023-10-08T07:47:04;36.63;;;18.45;;
66169;SDS011;66757;44.024;20.456;2023-10-08T07:49:35;39.28;;;18.35;;
66169;SDS011;66757;44.024;20.456;2023-10-08T07:52:01;33.35;;;17.15;;
66169;SDS011;66757;44.024;20.456;2023-10-08T07:54:29;39.28;;;18.00;;
66169;SDS011;66757;44.024;20.456;2023-10-08T07:56:59;31.73;;;15.55;;
66169;SDS011;66757;44.024;20.456;2023-10-08T07:59:34;36.25;;;16.95;;
66169;SDS011;66757;44.024;20.456;2023-10-08T08:02:12;26.90;;;13.20;;
66169;SDS011;66757;44.024;20.456;2023-10-08T08:04:39;24.83;;;12.63;;
66169;SDS011;66757;44.024;20.456;2023-10-08T08:07:06;24.70;;;12.52;;
66169;SDS011;66757;44.024;20.456;2023-10-08T08:09:33;20.33;;;10.88;;
66169;SDS011;66757;44.024;20.456;2023-10-08T08:12:09;16.95;;;8.95;;
66169;SDS011;66757;44.024;20.456;2023-10-08T08:14:37;15.90;;;8.45;;
66169;SDS011;66757;44.024;20.456;2023-10-08T08:17:07;10.73;;;7.75;;
66169;SDS011;66757;44.024;20.456;2023-10-08T08:19:42;11.30;;;7.03;;
66169;SDS011;66757;44.024;20.456;2023-10-08T08:22:11;13.38;;;6.93;;
66169;SDS011;66757;44.024;20.456;2023-10-08T08:24:46;13.80;;;7.88;;
66169;SDS011;66757;44.024;20.456;2023-10-08T08:27:19;8.60;;;6.55;;
66169;SDS011;66757;44.024;20.456;2023-10-08T08:29:57;11.13;;;6.22;;
66169;SDS011;66757;44.024;20.456;2023-10-08T08:32:35;10.10;;;5.93;;
66169;SDS011;66757;44.024;20.456;2023-10-08T08:35:12;7.05;;;4.18;;
66169;SDS011;66757;44.024;20.456;2023-10-08T08:37:41;6.43;;;3.83;;
66169;SDS011;66757;44.024;20.456;2023-10-08T08:40:08;9.25;;;4.47;;
66169;SDS011;66757;44.024;20.456;2023-10-08T08:45:12;5.53;;;2.08;;
66169;SDS011;66757;44.024;20.456;2023-10-08T08:50:37;4.80;;;2.28;;
66169;SDS011;66757;44.024;20.456;2023-10-08T08:53:03;5.28;;;2.00;;
66169;SDS011;66757;44.024;20.456;2023-10-08T08:55:29;4.30;;;2.15;;
66169;SDS011;66757;44.024;20.456;2023-10-08T08:57:57;4.45;;;2.35;;
66169;SDS011;66757;44.024;20.456;2023-10-08T09:00:25;3.30;;;1.98;;
66169;SDS011;66757;44.024;20.456;2023-10-08T09:02:55;3.75;;;1.90;;
66169;SDS011;66757;44.024;20.456;2023-10-08T09:05:21;4.30;;;2.60;;
66169;SDS011;66757;44.024;20.456;2023-10-08T09:08:03;4.88;;;3.25;;
66169;SDS011;66757;44.024;20.456;2023-10-08T09:10:32;4.47;;;2.70;;
66169;SDS011;66757;44.024;20.456;2023-10-08T09:13:02;4.85;;;2.70;;
66169;SDS011;66757;44.024;20.456;2023-10-08T09:15:33;4.28;;;2.88;;
66169;SDS011;66757;44.024;20.456;2023-10-08T09:17:58;3.70;;;2.30;;
66169;SDS011;66757;44.024;20.456;2023-10-08T09:20:26;3.83;;;2.28;;
66169;SDS011;66757;44.024;20.456;2023-10-08T09:25:39;5.13;;;2.22;;
66169;SDS011;66757;44.024;20.456;2023-10-08T09:28:08;6.53;;;2.40;;
66169;SDS011;66757;44.024;20.456;2023-10-08T09:30:34;4.43;;;2.35;;
66169;SDS011;66757;44.024;20.456;2023-10-08T09:33:04;6.80;;;2.92;;
66169;SDS011;66757;44.024;20.456;2023-10-08T09:35:32;3.75;;;2.17;;
66169;SDS011;66757;44.024;20.456;2023-10-08T09:37:59;6.22;;;2.80;;
66169;SDS011;66757;44.024;20.456;2023-10-08T09:40:28;5.95;;;2.50;;
66169;SDS011;66757;44.024;20.456;2023-10-08T09:42:54;4.07;;;2.63;;
66169;SDS011;66757;44.024;20.456;2023-10-08T09:45:22;4.97;;;2.70;;
66169;SDS011;66757;44.024;20.456;2023-10-08T09:47:52;5.88;;;2.80;;
66169;SDS011;66757;44.024;20.456;2023-10-08T09:50:27;6.47;;;3.03;;
66169;SDS011;66757;44.024;20.456;2023-10-08T09:53:28;5.03;;;2.40;;
66169;SDS011;66757;44.024;20.456;2023-10-08T09:55:55;4.32;;;2.03;;
66169;SDS011;66757;44.024;20.456;2023-10-08T09:58:25;6.18;;;3.10;;
66169;SDS011;66757;44.024;20.456;2023-10-08T10:00:54;5.72;;;3.35;;
66169;SDS011;66757;44.024;20.456;2023-10-08T10:03:21;6.18;;;2.70;;
66169;SDS011;66757;44.024;20.456;2023-10-08T10:05:48;4.32;;;2.67;;
66169;SDS011;66757;44.024;20.456;2023-10-08T10:08:17;5.32;;;2.70;;
66169;SDS011;66757;44.024;20.456;2023-10-08T10:10:45;5.75;;;2.90;;
66169;SDS011;66757;44.024;20.456;2023-10-08T10:13:13;5.78;;;3.08;;
66169;SDS011;66757;44.024;20.456;2023-10-08T10:15:42;5.00;;;2.63;;
66169;SDS011;66757;44.024;20.456;2023-10-08T10:18:32;5.80;;;2.80;;
66169;SDS011;66757;44.024;20.456;2023-10-08T10:31:43;8.13;;;3.97;;
66169;SDS011;66757;44.024;20.456;2023-10-08T10:34:12;4.97;;;3.42;;
66169;SDS011;66757;44.024;20.456;2023-10-08T10:36:48;4.57;;;3.22;;
66169;SDS011;66757;44.024;20.456;2023-10-08T10:39:16;9.88;;;3.97;;
66169;SDS011;66757;44.024;20.456;2023-10-08T10:44:13;6.05;;;4.05;;
66169;SDS011;66757;44.024;20.456;2023-10-08T10:46:42;7.47;;;3.88;;
66169;SDS011;66757;44.024;20.456;2023-10-08T10:49:19;9.10;;;4.60;;
66169;SDS011;66757;44.024;20.456;2023-10-08T10:51:55;6.75;;;3.88;;
66169;SDS011;66757;44.024;20.456;2023-10-08T10:54:24;9.32;;;3.95;;
66169;SDS011;66757;44.024;20.456;2023-10-08T10:56:50;9.00;;;4.20;;
66169;SDS011;66757;44.024;20.456;2023-10-08T10:59:31;5.70;;;3.40;;
66169;SDS011;66757;44.024;20.456;2023-10-08T11:02:04;5.85;;;3.30;;
66169;SDS011;66757;44.024;20.456;2023-10-08T11:04:33;5.78;;;3.08;;
66169;SDS011;66757;44.024;20.456;2023-10-08T11:07:13;7.22;;;4.05;;
66169;SDS011;66757;44.024;20.456;2023-10-08T11:09:43;9.05;;;3.75;;
66169;SDS011;66757;44.024;20.456;2023-10-08T11:12:12;7.72;;;3.25;;
66169;SDS011;66757;44.024;20.456;2023-10-08T11:14:40;5.43;;;3.13;;
66169;SDS011;66757;44.024;20.456;2023-10-08T11:17:44;5.85;;;3.08;;
66169;SDS011;66757;44.024;20.456;2023-10-08T11:20:22;3.67;;;2.42;;
66169;SDS011;66757;44.024;20.456;2023-10-08T11:22:49;5.50;;;2.97;;
66169;SDS011;66757;44.024;20.456;2023-10-08T11:25:22;3.78;;;2.45;;
66169;SDS011;66757;44.024;20.456;2023-10-08T11:27:53;5.20;;;2.88;;
66169;SDS011;66757;44.024;20.456;2023-10-08T11:30:28;3.65;;;2.60;;
66169;SDS011;66757;44.024;20.456;2023-10-08T11:32:59;6.32;;;2.83;;
66169;SDS011;66757;44.024;20.456;2023-10-08T11:35:26;6.97;;;2.65;;
66169;SDS011;66757;44.024;20.456;2023-10-08T11:37:59;7.53;;;1.88;;
66169;SDS011;66757;44.024;20.456;2023-10-08T11:40:28;10.90;;;3.25;;
66169;SDS011;66757;44.024;20.456;2023-10-08T11:42:54;6.82;;;2.72;;
66169;SDS011;66757;44.024;20.456;2023-10-08T11:45:29;8.63;;;1.88;;
66169;SDS011;66757;44.024;20.456;2023-10-08T11:48:04;9.00;;;2.30;;
66169;SDS011;66757;44.024;20.456;2023-10-08T11:50:37;7.50;;;1.92;;
66169;SDS011;66757;44.024;20.456;2023-10-08T11:53:04;7.22;;;2.00;;
66169;SDS011;66757;44.024;20.456;2023-10-08T11:55:33;7.82;;;2.25;;
66169;SDS011;66757;44.024;20.456;2023-10-08T11:58:01;9.10;;;2.25;;
66169;SDS011;66757;44.024;20.456;2023-10-08T12:00:35;8.23;;;2.30;;
66169;SDS011;66757;44.024;20.456;2023-10-08T12:03:09;14.68;;;2.00;;
66169;SDS011;66757;44.024;20.456;2023-10-08T12:05:36;8.02;;;2.47;;
66169;SDS011;66757;44.024;20.456;2023-10-08T12:08:04;11.38;;;2.28;;
66169;SDS011;66757;44.024;20.456;2023-10-08T12:10:33;6.63;;;1.70;;
66169;SDS011;66757;44.024;20.456;2023-10-08T12:12:59;7.72;;;1.77;;
66169;SDS011;66757;44.024;20.456;2023-10-08T12:15:25;5.45;;;1.85;;
66169;SDS011;66757;44.024;20.456;2023-10-08T12:18:04;8.98;;;1.55;;
66169;SDS011;66757;44.024;20.456;2023-10-08T12:20:37;10.50;;;2.45;;
66169;SDS011;66757;44.024;20.456;2023-10-08T12:23:06;10.88;;;1.95;;
66169;SDS011;66757;44.024;20.456;2023-10-08T12:25:36;8.45;;;2.47;;
66169;SDS011;66757;44.024;20.456;2023-10-08T12:28:02;8.77;;;1.98;;
66169;SDS011;66757;44.024;20.456;2023-10-08T12:30:29;9.18;;;1.63;;
66169;SDS011;66757;44.024;20.456;2023-10-08T12:33:07;11.32;;;3.03;;
66169;SDS011;66757;44.024;20.456;2023-10-08T12:35:38;8.25;;;2.20;;
66169;SDS011;66757;44.024;20.456;2023-10-08T12:38:08;7.20;;;2.03;;
66169;SDS011;66757;44.024;20.456;2023-10-08T12:40:34;10.82;;;2.55;;
66169;SDS011;66757;44.024;20.456;2023-10-08T12:43:16;13.65;;;2.83;;
66169;SDS011;66757;44.024;20.456;2023-10-08T12:45:45;6.38;;;1.75;;
66169;SDS011;66757;44.024;20.456;2023-10-08T12:48:18;8.18;;;1.80;;
66169;SDS011;66757;44.024;20.456;2023-10-08T12:50:54;8.18;;;2.28;;
66169;SDS011;66757;44.024;20.456;2023-10-08T12:53:23;7.18;;;2.17;;
66169;SDS011;66757;44.024;20.456;2023-10-08T12:55:58;8.10;;;1.80;;
66169;SDS011;66757;44.024;20.456;2023-10-08T12:58:30;8.50;;;1.20;;
66169;SDS011;66757;44.024;20.456;2023-10-08T13:00:57;12.35;;;2.42;;
66169;SDS011;66757;44.024;20.456;2023-10-08T13:03:24;7.25;;;1.92;;
66169;SDS011;66757;44.024;20.456;2023-10-08T13:05:51;9.13;;;2.00;;
66169;SDS011;66757;44.024;20.456;2023-10-08T13:08:21;10.52;;;1.95;;
66169;SDS011;66757;44.024;20.456;2023-10-08T13:10:46;8.55;;;2.67;;
66169;SDS011;66757;44.024;20.456;2023-10-08T13:13:12;11.00;;;2.40;;
66169;SDS011;66757;44.024;20.456;2023-10-08T13:15:39;10.93;;;2.92;;
66169;SDS011;66757;44.024;20.456;2023-10-08T13:18:07;16.10;;;7.10;;
66169;SDS011;66757;44.024;20.456;2023-10-08T13:20:33;9.80;;;1.75;;
66169;SDS011;66757;44.024;20.456;2023-10-08T13:23:02;9.00;;;2.15;;
66169;SDS011;66757;44.024;20.456;2023-10-08T13:25:29;10.75;;;1.98;;
66169;SDS011;66757;44.024;20.456;2023-10-08T13:27:58;5.40;;;1.77;;
66169;SDS011;66757;44.024;20.456;2023-10-08T13:30:26;11.88;;;2.92;;
66169;SDS011;66757;44.024;20.456;2023-10-08T13:32:52;8.43;;;2.33;;
66169;SDS011;66757;44.024;20.456;2023-10-08T13:35:18;8.35;;;2.25;;
66169;SDS011;66757;44.024;20.456;2023-10-08T13:37:44;11.25;;;2.20;;
66169;SDS011;66757;44.024;20.456;2023-10-08T13:40:13;9.40;;;2.05;;
66169;SDS011;66757;44.024;20.456;2023-10-08T13:42:43;7.63;;;2.13;;
66169;SDS011;66757;44.024;20.456;2023-10-08T13:45:10;6.70;;;1.75;;
66169;SDS011;66757;44.024;20.456;2023-10-08T13:47:51;7.32;;;1.90;;
66169;SDS011;66757;44.024;20.456;2023-10-08T13:50:16;9.23;;;2.33;;
66169;SDS011;66757;44.024;20.456;2023-10-08T13:52:43;11.57;;;2.40;;
66169;SDS011;66757;44.024;20.456;2023-10-08T13:55:09;11.18;;;2.47;;
66169;SDS011;66757;44.024;20.456;2023-10-08T13:57:39;9.25;;;1.98;;
66169;SDS011;66757;44.024;20.456;2023-10-08T14:00:07;12.93;;;2.53;;
66169;SDS011;66757;44.024;20.456;2023-10-08T14:02:41;7.65;;;1.83;;
66169;SDS011;66757;44.024;20.456;2023-10-08T14:05:09;18.40;;;2.33;;
66169;SDS011;66757;44.024;20.456;2023-10-08T14:07:40;5.70;;;2.13;;
66169;SDS011;66757;44.024;20.456;2023-10-08T14:10:09;9.50;;;2.45;;
66169;SDS011;66757;44.024;20.456;2023-10-08T14:12:43;10.38;;;2.88;;
66169;SDS011;66757;44.024;20.456;2023-10-08T14:15:14;9.32;;;2.67;;
66169;SDS011;66757;44.024;20.456;2023-10-08T14:17:42;8.70;;;1.80;;
66169;SDS011;66757;44.024;20.456;2023-10-08T14:20:09;8.60;;;3.00;;
66169;SDS011;66757;44.024;20.456;2023-10-08T14:22:39;9.60;;;3.53;;
66169;SDS011;66757;44.024;20.456;2023-10-08T14:25:09;12.00;;;3.72;;
66169;SDS011;66757;44.024;20.456;2023-10-08T14:27:37;7.75;;;2.67;;
66169;SDS011;66757;44.024;20.456;2023-10-08T14:30:08;12.93;;;2.58;;
66169;SDS011;66757;44.024;20.456;2023-10-08T14:32:43;8.43;;;2.20;;
66169;SDS011;66757;44.024;20.456;2023-10-08T14:35:14;9.73;;;2.38;;
66169;SDS011;66757;44.024;20.456;2023-10-08T14:38:01;14.07;;;2.45;;
66169;SDS011;66757;44.024;20.456;2023-10-08T14:40:46;6.85;;;2.75;;
66169;SDS011;66757;44.024;20.456;2023-10-08T14:43:30;8.27;;;2.67;;
66169;SDS011;66757;44.024;20.456;2023-10-08T14:46:00;6.53;;;2.50;;
66169;SDS011;66757;44.024;20.456;2023-10-08T14:48:29;8.43;;;2.45;;
66169;SDS011;66757;44.024;20.456;2023-10-08T14:51:00;9.52;;;2.83;;
66169;SDS011;66757;44.024;20.456;2023-10-08T14:53:28;12.43;;;3.65;;
66169;SDS011;66757;44.024;20.456;2023-10-08T14:55:56;17.27;;;3.28;;
66169;SDS011;66757;44.024;20.456;2023-10-08T14:58:22;8.70;;;3.03;;
66169;SDS011;66757;44.024;20.456;2023-10-08T15:00:48;10.60;;;5.00;;
66169;SDS011;66757;44.024;20.456;2023-10-08T15:03:14;8.75;;;4.13;;
66169;SDS011;66757;44.024;20.456;2023-10-08T15:05:39;13.45;;;4.55;;
66169;SDS011;66757;44.024;20.456;2023-10-08T15:08:08;11.13;;;3.60;;
66169;SDS011;66757;44.024;20.456;2023-10-08T15:10:40;13.95;;;5.13;;
66169;SDS011;66757;44.024;20.456;2023-10-08T15:13:06;17.05;;;6.15;;
66169;SDS011;66757;44.024;20.456;2023-10-08T15:15:34;18.55;;;5.38;;
66169;SDS011;66757;44.024;20.456;2023-10-08T15:18:00;12.30;;;4.20;;
66169;SDS011;66757;44.024;20.456;2023-10-08T15:20:31;16.63;;;5.32;;
66169;SDS011;66757;44.024;20.456;2023-10-08T15:22:58;15.55;;;6.22;;